sensor_id;sensor_type;location;lat;lon;timestamp;temperature;humidity
1728;DHT22;861;48.808;9.006;2022-08-19T00:01:57;21.80;99.90
1728;DHT22;861;48.808;9.006;2022-08-19T00:04:30;21.80;99.90
1728;DHT22;861;48.808;9.006;2022-08-19T00:07:05;21.80;99.90
1728;DHT22;861;48.808;9.006;2022-08-19T00:09:33;21.70;99.90
1728;DHT22;861;48.808;9.006;2022-08-19T00:12:00;21.70;99.90
1728;DHT22;861;48.808;9.006;2022-08-19T00:14:28;21.70;99.90
1728;DHT22;861;48.808;9.006;2022-08-19T00:16:57;21.70;99.90
1728;DHT22;861;48.808;9.006;2022-08-19T00:19:24;21.70;99.90
1728;DHT22;861;48.808;9.006;2022-08-19T00:21:51;21.60;99.90
1728;DHT22;861;48.808;9.006;2022-08-19T00:24:18;21.70;99.90
1728;DHT22;861;48.808;9.006;2022-08-19T00:26:46;21.70;99.90
1728;DHT22;861;48.808;9.006;2022-08-19T00:29:16;21.70;99.90
1728;DHT22;861;48.808;9.006;2022-08-19T00:31:46;21.70;99.90
1728;DHT22;861;48.808;9.006;2022-08-19T00:34:15;21.70;99.90
1728;DHT22;861;48.808;9.006;2022-08-19T00:36:43;21.70;99.90
1728;DHT22;861;48.808;9.006;2022-08-19T00:39:11;21.60;99.90
1728;DHT22;861;48.808;9.006;2022-08-19T00:41:42;21.70;99.90
1728;DHT22;861;48.808;9.006;2022-08-19T00:44:28;21.70;99.90
1728;DHT22;861;48.808;9.006;2022-08-19T00:46:58;21.70;99.90
1728;DHT22;861;48.808;9.006;2022-08-19T00:49:36;21.70;99.90
1728;DHT22;861;48.808;9.006;2022-08-19T00:52:25;21.70;99.90
1728;DHT22;861;48.808;9.006;2022-08-19T00:55:06;21.70;99.90
1728;DHT22;861;48.808;9.006;2022-08-19T00:57:44;21.60;99.90
1728;DHT22;861;48.808;9.006;2022-08-19T01:00:19;21.60;99.90
1728;DHT22;861;48.808;9.006;2022-08-19T01:02:48;21.60;99.90
1728;DHT22;861;48.808;9.006;2022-08-19T01:05:20;21.60;99.90
1728;DHT22;861;48.808;9.006;2022-08-19T01:07:59;21.60;99.90
1728;DHT22;861;48.808;9.006;2022-08-19T01:10:39;21.60;99.90
1728;DHT22;861;48.808;9.006;2022-08-19T01:13:16;21.60;99.90
1728;DHT22;861;48.808;9.006;2022-08-19T01:16:00;21.60;99.90
1728;DHT22;861;48.808;9.006;2022-08-19T01:18:41;21.50;99.90
1728;DHT22;861;48.808;9.006;2022-08-19T01:21:22;21.40;99.90
1728;DHT22;861;48.808;9.006;2022-08-19T01:23:58;21.40;99.90
1728;DHT22;861;48.808;9.006;2022-08-19T01:26:26;21.60;99.90
1728;DHT22;861;48.808;9.006;2022-08-19T01:28:58;21.70;99.90
1728;DHT22;861;48.808;9.006;2022-08-19T01:31:29;21.70;99.90
1728;DHT22;861;48.808;9.006;2022-08-19T01:33:59;21.70;99.90
1728;DHT22;861;48.808;9.006;2022-08-19T01:36:36;21.60;99.90
1728;DHT22;861;48.808;9.006;2022-08-19T01:39:20;21.50;99.90
1728;DHT22;861;48.808;9.006;2022-08-19T01:41:50;21.50;99.90
1728;DHT22;861;48.808;9.006;2022-08-19T01:44:21;21.40;99.90
1728;DHT22;861;48.808;9.006;2022-08-19T01:46:51;21.50;99.90
1728;DHT22;861;48.808;9.006;2022-08-19T01:49:22;21.40;99.90
1728;DHT22;861;48.808;9.006;2022-08-19T01:51:51;21.50;99.90
1728;DHT22;861;48.808;9.006;2022-08-19T01:54:22;21.40;99.90
1728;DHT22;861;48.808;9.006;2022-08-19T01:57:03;21.40;99.90
1728;DHT22;861;48.808;9.006;2022-08-19T01:59:37;21.40;99.90
1728;DHT22;861;48.808;9.006;2022-08-19T02:02:07;21.40;99.90
1728;DHT22;861;48.808;9.006;2022-08-19T02:04:35;21.40;99.90
1728;DHT22;861;48.808;9.006;2022-08-19T02:07:07;21.40;99.90
1728;DHT22;861;48.808;9.006;2022-08-19T02:09:35;21.50;99.90
1728;DHT22;861;48.808;9.006;2022-08-19T02:12:02;21.20;99.90
1728;DHT22;861;48.808;9.006;2022-08-19T02:14:30;21.30;99.90
1728;DHT22;861;48.808;9.006;2022-08-19T02:16:56;21.20;99.90
1728;DHT22;861;48.808;9.006;2022-08-19T02:19:22;21.20;99.90
1728;DHT22;861;48.808;9.006;2022-08-19T02:21:48;21.20;99.90
1728;DHT22;861;48.808;9.006;2022-08-19T02:24:14;21.20;99.90
1728;DHT22;861;48.808;9.006;2022-08-19T02:26:41;21.20;99.90
1728;DHT22;861;48.808;9.006;2022-08-19T02:29:07;21.20;99.90
1728;DHT22;861;48.808;9.006;2022-08-19T02:31:34;21.20;99.90
1728;DHT22;861;48.808;9.006;2022-08-19T02:34:00;21.50;99.90
1728;DHT22;861;48.808;9.006;2022-08-19T02:36:27;21.10;99.90
1728;DHT22;861;48.808;9.006;2022-08-19T02:38:55;21.10;99.90
1728;DHT22;861;48.808;9.006;2022-08-19T02:41:33;21.10;99.90
1728;DHT22;861;48.808;9.006;2022-08-19T02:44:02;21.10;99.90
1728;DHT22;861;48.808;9.006;2022-08-19T02:46:33;21.00;99.90
1728;DHT22;861;48.808;9.006;2022-08-19T02:49:07;21.00;99.90
1728;DHT22;861;48.808;9.006;2022-08-19T02:51:39;21.00;99.90
1728;DHT22;861;48.808;9.006;2022-08-19T02:54:11;20.90;99.90
1728;DHT22;861;48.808;9.006;2022-08-19T02:57:19;20.90;99.90
1728;DHT22;861;48.808;9.006;2022-08-19T02:59:45;20.90;99.90
1728;DHT22;861;48.808;9.006;2022-08-19T03:02:11;20.80;99.90
1728;DHT22;861;48.808;9.006;2022-08-19T03:04:37;20.80;99.90
1728;DHT22;861;48.808;9.006;2022-08-19T03:07:04;20.90;99.90
1728;DHT22;861;48.808;9.006;2022-08-19T03:09:30;21.10;99.90
1728;DHT22;861;48.808;9.006;2022-08-19T03:11:56;20.80;99.90
1728;DHT22;861;48.808;9.006;2022-08-19T03:14:22;20.80;99.90
1728;DHT22;861;48.808;9.006;2022-08-19T03:16:52;20.80;99.90
1728;DHT22;861;48.808;9.006;2022-08-19T03:19:20;20.80;99.90
1728;DHT22;861;48.808;9.006;2022-08-19T03:21:51;20.80;99.90
1728;DHT22;861;48.808;9.006;2022-08-19T03:24:19;20.80;99.90
1728;DHT22;861;48.808;9.006;2022-08-19T03:26:51;20.80;99.90
1728;DHT22;861;48.808;9.006;2022-08-19T03:29:27;20.70;99.90
1728;DHT22;861;48.808;9.006;2022-08-19T03:32:00;20.70;99.90
1728;DHT22;861;48.808;9.006;2022-08-19T03:34:33;20.60;99.90
1728;DHT22;861;48.808;9.006;2022-08-19T03:37:09;20.70;99.90
1728;DHT22;861;48.808;9.006;2022-08-19T03:39:41;20.70;99.90
1728;DHT22;861;48.808;9.006;2022-08-19T03:42:09;20.70;99.90
1728;DHT22;861;48.808;9.006;2022-08-19T03:44:36;20.70;99.90
1728;DHT22;861;48.808;9.006;2022-08-19T03:47:04;20.70;99.90
1728;DHT22;861;48.808;9.006;2022-08-19T03:49:33;20.70;99.90
1728;DHT22;861;48.808;9.006;2022-08-19T03:52:01;20.70;99.90
1728;DHT22;861;48.808;9.006;2022-08-19T03:54:30;20.70;99.90
1728;DHT22;861;48.808;9.006;2022-08-19T03:56:57;20.60;99.90
1728;DHT22;861;48.808;9.006;2022-08-19T03:59:30;20.70;99.90
1728;DHT22;861;48.808;9.006;2022-08-19T04:02:05;20.60;99.90
1728;DHT22;861;48.808;9.006;2022-08-19T04:04:41;20.50;99.90
1728;DHT22;861;48.808;9.006;2022-08-19T04:07:12;20.50;99.90
1728;DHT22;861;48.808;9.006;2022-08-19T04:09:48;20.50;99.90
1728;DHT22;861;48.808;9.006;2022-08-19T04:12:14;20.50;99.90
1728;DHT22;861;48.808;9.006;2022-08-19T04:14:41;20.50;99.90
1728;DHT22;861;48.808;9.006;2022-08-19T04:17:07;20.40;99.90
1728;DHT22;861;48.808;9.006;2022-08-19T04:19:36;20.50;99.90
1728;DHT22;861;48.808;9.006;2022-08-19T04:22:03;20.50;99.90
1728;DHT22;861;48.808;9.006;2022-08-19T04:24:31;20.50;99.90
1728;DHT22;861;48.808;9.006;2022-08-19T04:27:02;20.40;99.90
1728;DHT22;861;48.808;9.006;2022-08-19T04:29:31;20.50;99.90
1728;DHT22;861;48.808;9.006;2022-08-19T04:32:00;20.50;99.90
1728;DHT22;861;48.808;9.006;2022-08-19T04:34:29;20.50;99.90
1728;DHT22;861;48.808;9.006;2022-08-19T04:36:58;20.50;99.90
1728;DHT22;861;48.808;9.006;2022-08-19T04:39:30;20.60;99.90
1728;DHT22;861;48.808;9.006;2022-08-19T04:42:17;20.50;99.90
1728;DHT22;861;48.808;9.006;2022-08-19T04:45:14;20.50;99.90
1728;DHT22;861;48.808;9.006;2022-08-19T04:47:43;20.60;99.90
1728;DHT22;861;48.808;9.006;2022-08-19T04:50:10;20.60;99.90
1728;DHT22;861;48.808;9.006;2022-08-19T04:52:40;20.60;99.90
1728;DHT22;861;48.808;9.006;2022-08-19T04:55:12;20.60;99.90
1728;DHT22;861;48.808;9.006;2022-08-19T04:57:40;20.70;99.90
1728;DHT22;861;48.808;9.006;2022-08-19T05:00:09;20.70;99.90
1728;DHT22;861;48.808;9.006;2022-08-19T05:02:37;20.70;99.90
1728;DHT22;861;48.808;9.006;2022-08-19T05:05:05;20.70;99.90
1728;DHT22;861;48.808;9.006;2022-08-19T05:07:32;20.70;99.90
1728;DHT22;861;48.808;9.006;2022-08-19T05:09:58;20.60;99.90
1728;DHT22;861;48.808;9.006;2022-08-19T05:12:25;20.60;99.90
1728;DHT22;861;48.808;9.006;2022-08-19T05:14:54;20.60;99.90
1728;DHT22;861;48.808;9.006;2022-08-19T05:17:28;20.60;99.90
1728;DHT22;861;48.808;9.006;2022-08-19T05:19:55;20.60;99.90
1728;DHT22;861;48.808;9.006;2022-08-19T05:22:45;20.60;99.90
1728;DHT22;861;48.808;9.006;2022-08-19T05:25:18;20.70;99.90
1728;DHT22;861;48.808;9.006;2022-08-19T05:27:47;20.70;99.90
1728;DHT22;861;48.808;9.006;2022-08-19T05:30:15;20.70;99.90
1728;DHT22;861;48.808;9.006;2022-08-19T05:32:43;20.70;99.90
1728;DHT22;861;48.808;9.006;2022-08-19T05:35:09;20.70;99.90
1728;DHT22;861;48.808;9.006;2022-08-19T05:37:37;20.70;99.90
1728;DHT22;861;48.808;9.006;2022-08-19T05:40:06;20.70;99.90
1728;DHT22;861;48.808;9.006;2022-08-19T05:42:33;20.70;99.90
1728;DHT22;861;48.808;9.006;2022-08-19T05:45:00;20.90;99.90
1728;DHT22;861;48.808;9.006;2022-08-19T05:47:27;20.80;99.90
1728;DHT22;861;48.808;9.006;2022-08-19T05:49:53;20.90;99.90
1728;DHT22;861;48.808;9.006;2022-08-19T05:52:20;21.00;99.90
1728;DHT22;861;48.808;9.006;2022-08-19T05:54:47;20.90;99.90
1728;DHT22;861;48.808;9.006;2022-08-19T05:57:14;20.90;99.90
1728;DHT22;861;48.808;9.006;2022-08-19T05:59:41;20.90;99.90
1728;DHT22;861;48.808;9.006;2022-08-19T06:02:08;20.90;99.90
1728;DHT22;861;48.808;9.006;2022-08-19T06:04:39;20.80;99.90
1728;DHT22;861;48.808;9.006;2022-08-19T06:07:08;20.90;99.90
1728;DHT22;861;48.808;9.006;2022-08-19T06:09:35;20.90;99.90
1728;DHT22;861;48.808;9.006;2022-08-19T06:12:03;20.80;99.90
1728;DHT22;861;48.808;9.006;2022-08-19T06:14:33;20.80;99.90
1728;DHT22;861;48.808;9.006;2022-08-19T06:17:03;20.80;99.90
1728;DHT22;861;48.808;9.006;2022-08-19T06:19:31;20.80;99.90
1728;DHT22;861;48.808;9.006;2022-08-19T06:21:59;20.80;99.90
1728;DHT22;861;48.808;9.006;2022-08-19T06:24:29;20.80;99.90
1728;DHT22;861;48.808;9.006;2022-08-19T06:26:58;20.90;99.90
1728;DHT22;861;48.808;9.006;2022-08-19T06:29:28;20.90;99.90
1728;DHT22;861;48.808;9.006;2022-08-19T06:32:02;20.90;99.90
1728;DHT22;861;48.808;9.006;2022-08-19T06:34:32;20.80;99.90
1728;DHT22;861;48.808;9.006;2022-08-19T06:37:01;20.80;99.90
1728;DHT22;861;48.808;9.006;2022-08-19T06:39:33;20.90;99.90
1728;DHT22;861;48.808;9.006;2022-08-19T06:42:06;20.90;99.90
1728;DHT22;861;48.808;9.006;2022-08-19T06:44:38;20.90;99.90
1728;DHT22;861;48.808;9.006;2022-08-19T06:47:10;21.00;99.90
1728;DHT22;861;48.808;9.006;2022-08-19T06:49:41;21.00;99.90
1728;DHT22;861;48.808;9.006;2022-08-19T06:52:09;21.00;99.90
1728;DHT22;861;48.808;9.006;2022-08-19T06:54:41;21.00;99.90
1728;DHT22;861;48.808;9.006;2022-08-19T06:57:08;21.00;99.90
1728;DHT22;861;48.808;9.006;2022-08-19T06:59:39;21.00;99.90
1728;DHT22;861;48.808;9.006;2022-08-19T07:02:07;21.10;99.90
1728;DHT22;861;48.808;9.006;2022-08-19T07:04:35;21.10;99.90
1728;DHT22;861;48.808;9.006;2022-08-19T07:07:14;21.10;99.90
1728;DHT22;861;48.808;9.006;2022-08-19T07:09:44;21.20;99.90
1728;DHT22;861;48.808;9.006;2022-08-19T07:12:13;21.30;99.90
1728;DHT22;861;48.808;9.006;2022-08-19T07:14:43;21.30;99.90
1728;DHT22;861;48.808;9.006;2022-08-19T07:17:11;21.30;99.90
1728;DHT22;861;48.808;9.006;2022-08-19T07:19:39;21.30;99.90
1728;DHT22;861;48.808;9.006;2022-08-19T07:22:09;21.20;99.90
1728;DHT22;861;48.808;9.006;2022-08-19T07:24:38;21.20;99.90
1728;DHT22;861;48.808;9.006;2022-08-19T07:27:06;21.20;99.90
1728;DHT22;861;48.808;9.006;2022-08-19T07:29:36;21.20;99.90
1728;DHT22;861;48.808;9.006;2022-08-19T07:32:05;21.30;99.90
1728;DHT22;861;48.808;9.006;2022-08-19T07:34:33;21.30;99.90
1728;DHT22;861;48.808;9.006;2022-08-19T07:37:06;21.40;99.90
1728;DHT22;861;48.808;9.006;2022-08-19T07:39:37;21.40;99.90
1728;DHT22;861;48.808;9.006;2022-08-19T07:42:09;21.40;99.90
1728;DHT22;861;48.808;9.006;2022-08-19T07:44:37;21.30;99.90
1728;DHT22;861;48.808;9.006;2022-08-19T07:47:05;21.40;99.90
1728;DHT22;861;48.808;9.006;2022-08-19T07:49:33;21.40;99.90
1728;DHT22;861;48.808;9.006;2022-08-19T07:52:05;21.50;99.90
1728;DHT22;861;48.808;9.006;2022-08-19T07:54:38;21.40;99.90
1728;DHT22;861;48.808;9.006;2022-08-19T07:57:08;21.40;99.90
1728;DHT22;861;48.808;9.006;2022-08-19T07:59:34;21.40;99.90
1728;DHT22;861;48.808;9.006;2022-08-19T08:02:02;21.40;99.90
1728;DHT22;861;48.808;9.006;2022-08-19T08:04:30;21.40;99.90
1728;DHT22;861;48.808;9.006;2022-08-19T08:07:15;21.40;99.90
1728;DHT22;861;48.808;9.006;2022-08-19T08:10:03;21.40;99.90
1728;DHT22;861;48.808;9.006;2022-08-19T08:12:40;21.50;99.90
1728;DHT22;861;48.808;9.006;2022-08-19T08:15:14;21.50;99.90
1728;DHT22;861;48.808;9.006;2022-08-19T08:17:45;21.50;99.90
1728;DHT22;861;48.808;9.006;2022-08-19T08:20:13;21.50;99.90
1728;DHT22;861;48.808;9.006;2022-08-19T08:22:46;21.60;99.90
1728;DHT22;861;48.808;9.006;2022-08-19T08:25:32;21.60;99.90
1728;DHT22;861;48.808;9.006;2022-08-19T08:28:02;21.60;99.90
1728;DHT22;861;48.808;9.006;2022-08-19T08:30:31;21.50;99.90
1728;DHT22;861;48.808;9.006;2022-08-19T08:32:59;21.50;99.90
1728;DHT22;861;48.808;9.006;2022-08-19T08:35:25;21.40;99.90
1728;DHT22;861;48.808;9.006;2022-08-19T08:37:55;21.40;99.90
1728;DHT22;861;48.808;9.006;2022-08-19T08:43:39;21.20;99.90
1728;DHT22;861;48.808;9.006;2022-08-19T08:46:30;21.20;99.90
1728;DHT22;861;48.808;9.006;2022-08-19T08:49:41;21.20;99.90
1728;DHT22;861;48.808;9.006;2022-08-19T08:52:30;21.20;99.90
1728;DHT22;861;48.808;9.006;2022-08-19T08:55:28;21.30;99.90
1728;DHT22;861;48.808;9.006;2022-08-19T08:58:07;21.40;99.90
1728;DHT22;861;48.808;9.006;2022-08-19T09:00:49;21.40;99.90
1728;DHT22;861;48.808;9.006;2022-08-19T09:03:20;21.40;99.90
1728;DHT22;861;48.808;9.006;2022-08-19T09:09:39;21.40;99.90
1728;DHT22;861;48.808;9.006;2022-08-19T09:12:31;21.50;99.90
1728;DHT22;861;48.808;9.006;2022-08-19T09:15:28;21.60;99.90
1728;DHT22;861;48.808;9.006;2022-08-19T09:18:05;21.70;99.90
1728;DHT22;861;48.808;9.006;2022-08-19T09:20:32;21.70;99.90
1728;DHT22;861;48.808;9.006;2022-08-19T09:22:58;21.80;99.90
1728;DHT22;861;48.808;9.006;2022-08-19T09:25:26;21.80;99.90
1728;DHT22;861;48.808;9.006;2022-08-19T09:27:54;21.70;99.90
1728;DHT22;861;48.808;9.006;2022-08-19T09:30:38;21.80;99.90
1728;DHT22;861;48.808;9.006;2022-08-19T09:33:08;21.90;99.90
1728;DHT22;861;48.808;9.006;2022-08-19T09:35:34;21.90;99.90
1728;DHT22;861;48.808;9.006;2022-08-19T09:38:01;21.90;99.90
1728;DHT22;861;48.808;9.006;2022-08-19T09:40:30;21.90;99.90
1728;DHT22;861;48.808;9.006;2022-08-19T09:42:58;22.00;99.90
1728;DHT22;861;48.808;9.006;2022-08-19T09:45:28;22.00;99.90
1728;DHT22;861;48.808;9.006;2022-08-19T09:47:56;21.90;99.90
1728;DHT22;861;48.808;9.006;2022-08-19T09:50:23;21.90;99.90
1728;DHT22;861;48.808;9.006;2022-08-19T09:52:51;21.80;99.90
1728;DHT22;861;48.808;9.006;2022-08-19T09:55:19;21.80;99.90
1728;DHT22;861;48.808;9.006;2022-08-19T09:57:45;21.90;99.90
1728;DHT22;861;48.808;9.006;2022-08-19T10:00:11;21.80;99.90
1728;DHT22;861;48.808;9.006;2022-08-19T10:02:38;21.90;99.90
1728;DHT22;861;48.808;9.006;2022-08-19T10:05:05;21.90;99.90
1728;DHT22;861;48.808;9.006;2022-08-19T10:07:50;22.00;99.90
1728;DHT22;861;48.808;9.006;2022-08-19T10:10:17;22.10;99.90
1728;DHT22;861;48.808;9.006;2022-08-19T10:12:43;22.10;99.90
1728;DHT22;861;48.808;9.006;2022-08-19T10:15:13;22.10;99.90
1728;DHT22;861;48.808;9.006;2022-08-19T10:17:40;22.20;99.90
1728;DHT22;861;48.808;9.006;2022-08-19T10:20:07;22.20;99.90
1728;DHT22;861;48.808;9.006;2022-08-19T10:22:34;22.30;99.90
1728;DHT22;861;48.808;9.006;2022-08-19T10:25:04;22.20;99.90
1728;DHT22;861;48.808;9.006;2022-08-19T10:27:31;22.30;99.90
1728;DHT22;861;48.808;9.006;2022-08-19T10:29:58;22.40;99.90
1728;DHT22;861;48.808;9.006;2022-08-19T10:32:24;22.30;99.90
1728;DHT22;861;48.808;9.006;2022-08-19T10:34:50;22.30;99.90
1728;DHT22;861;48.808;9.006;2022-08-19T10:37:18;22.50;99.90
1728;DHT22;861;48.808;9.006;2022-08-19T10:39:46;22.50;99.90
1728;DHT22;861;48.808;9.006;2022-08-19T10:42:13;22.60;99.90
1728;DHT22;861;48.808;9.006;2022-08-19T10:44:42;22.70;99.90
1728;DHT22;861;48.808;9.006;2022-08-19T10:47:09;22.80;99.90
1728;DHT22;861;48.808;9.006;2022-08-19T10:49:36;22.90;99.90
1728;DHT22;861;48.808;9.006;2022-08-19T10:52:22;23.00;99.90
1728;DHT22;861;48.808;9.006;2022-08-19T10:55:02;23.20;99.90
1728;DHT22;861;48.808;9.006;2022-08-19T10:57:50;23.30;99.90
1728;DHT22;861;48.808;9.006;2022-08-19T11:00:21;23.50;99.90
1728;DHT22;861;48.808;9.006;2022-08-19T11:02:51;23.60;99.90
1728;DHT22;861;48.808;9.006;2022-08-19T11:05:19;23.70;99.90
1728;DHT22;861;48.808;9.006;2022-08-19T11:07:47;23.80;99.90
1728;DHT22;861;48.808;9.006;2022-08-19T11:10:16;23.90;99.90
1728;DHT22;861;48.808;9.006;2022-08-19T11:12:44;24.00;99.90
1728;DHT22;861;48.808;9.006;2022-08-19T11:15:12;23.90;99.90
1728;DHT22;861;48.808;9.006;2022-08-19T11:17:39;23.80;99.90
1728;DHT22;861;48.808;9.006;2022-08-19T11:20:13;23.90;99.90
1728;DHT22;861;48.808;9.006;2022-08-19T11:22:42;24.00;99.90
1728;DHT22;861;48.808;9.006;2022-08-19T11:25:10;24.00;99.90
1728;DHT22;861;48.808;9.006;2022-08-19T11:27:41;24.10;99.90
1728;DHT22;861;48.808;9.006;2022-08-19T11:30:11;24.20;99.90
1728;DHT22;861;48.808;9.006;2022-08-19T11:32:41;24.30;99.90
1728;DHT22;861;48.808;9.006;2022-08-19T11:35:08;24.30;99.90
1728;DHT22;861;48.808;9.006;2022-08-19T11:37:34;24.20;99.90
1728;DHT22;861;48.808;9.006;2022-08-19T11:40:07;24.20;99.90
1728;DHT22;861;48.808;9.006;2022-08-19T11:42:36;24.20;99.90
1728;DHT22;861;48.808;9.006;2022-08-19T11:45:24;24.10;99.90
1728;DHT22;861;48.808;9.006;2022-08-19T11:47:53;24.10;99.90
1728;DHT22;861;48.808;9.006;2022-08-19T11:50:20;24.00;99.90
1728;DHT22;861;48.808;9.006;2022-08-19T11:52:49;24.10;99.90
1728;DHT22;861;48.808;9.006;2022-08-19T11:55:17;24.20;99.90
1728;DHT22;861;48.808;9.006;2022-08-19T11:57:44;24.30;99.90
1728;DHT22;861;48.808;9.006;2022-08-19T12:00:13;24.30;99.90
1728;DHT22;861;48.808;9.006;2022-08-19T12:02:40;24.40;99.90
1728;DHT22;861;48.808;9.006;2022-08-19T12:05:10;24.50;99.90
1728;DHT22;861;48.808;9.006;2022-08-19T12:07:37;24.40;99.90
1728;DHT22;861;48.808;9.006;2022-08-19T12:10:04;24.40;99.90
1728;DHT22;861;48.808;9.006;2022-08-19T12:12:30;24.40;99.90
1728;DHT22;861;48.808;9.006;2022-08-19T12:14:57;24.30;99.90
1728;DHT22;861;48.808;9.006;2022-08-19T12:17:26;24.40;99.90
1728;DHT22;861;48.808;9.006;2022-08-19T12:19:54;24.30;99.90
1728;DHT22;861;48.808;9.006;2022-08-19T12:22:21;24.40;99.90
1728;DHT22;861;48.808;9.006;2022-08-19T12:24:47;24.50;99.90
1728;DHT22;861;48.808;9.006;2022-08-19T12:27:17;24.60;99.90
1728;DHT22;861;48.808;9.006;2022-08-19T12:29:45;24.70;99.90
1728;DHT22;861;48.808;9.006;2022-08-19T12:32:12;24.80;99.90
1728;DHT22;861;48.808;9.006;2022-08-19T12:34:39;24.80;99.90
1728;DHT22;861;48.808;9.006;2022-08-19T12:37:06;24.70;99.90
1728;DHT22;861;48.808;9.006;2022-08-19T12:39:41;24.60;99.90
1728;DHT22;861;48.808;9.006;2022-08-19T12:42:11;24.60;99.90
1728;DHT22;861;48.808;9.006;2022-08-19T12:44:42;24.70;99.90
1728;DHT22;861;48.808;9.006;2022-08-19T12:47:12;24.70;99.90
1728;DHT22;861;48.808;9.006;2022-08-19T12:49:40;24.80;99.90
1728;DHT22;861;48.808;9.006;2022-08-19T12:52:08;24.70;99.90
1728;DHT22;861;48.808;9.006;2022-08-19T12:54:37;24.70;99.90
1728;DHT22;861;48.808;9.006;2022-08-19T12:57:09;24.70;99.90
1728;DHT22;861;48.808;9.006;2022-08-19T12:59:38;24.90;99.90
1728;DHT22;861;48.808;9.006;2022-08-19T13:02:07;25.00;99.90
1728;DHT22;861;48.808;9.006;2022-08-19T13:04:35;25.00;99.90
1728;DHT22;861;48.808;9.006;2022-08-19T13:07:07;25.20;99.90
1728;DHT22;861;48.808;9.006;2022-08-19T13:09:34;25.30;99.90
1728;DHT22;861;48.808;9.006;2022-08-19T13:12:03;25.30;99.90
1728;DHT22;861;48.808;9.006;2022-08-19T13:14:35;25.30;99.90
1728;DHT22;861;48.808;9.006;2022-08-19T13:17:01;25.30;99.90
1728;DHT22;861;48.808;9.006;2022-08-19T13:19:27;25.30;99.80
1728;DHT22;861;48.808;9.006;2022-08-19T13:21:54;25.20;99.90
1728;DHT22;861;48.808;9.006;2022-08-19T13:24:21;25.10;99.90
1728;DHT22;861;48.808;9.006;2022-08-19T13:26:47;25.20;99.90
1728;DHT22;861;48.808;9.006;2022-08-19T13:29:13;25.20;99.90
1728;DHT22;861;48.808;9.006;2022-08-19T13:31:58;25.30;99.90
1728;DHT22;861;48.808;9.006;2022-08-19T13:34:43;25.30;99.90
1728;DHT22;861;48.808;9.006;2022-08-19T13:37:15;25.40;99.90
1728;DHT22;861;48.808;9.006;2022-08-19T13:39:41;25.40;99.90
1728;DHT22;861;48.808;9.006;2022-08-19T13:42:07;25.30;99.50
1728;DHT22;861;48.808;9.006;2022-08-19T13:44:36;25.30;99.10
1728;DHT22;861;48.808;9.006;2022-08-19T13:47:05;25.30;98.90
1728;DHT22;861;48.808;9.006;2022-08-19T13:49:34;25.30;98.50
1728;DHT22;861;48.808;9.006;2022-08-19T13:52:04;25.40;98.10
1728;DHT22;861;48.808;9.006;2022-08-19T13:54:31;25.50;98.40
1728;DHT22;861;48.808;9.006;2022-08-19T13:56:58;25.70;97.20
1728;DHT22;861;48.808;9.006;2022-08-19T13:59:24;25.80;96.40
1728;DHT22;861;48.808;9.006;2022-08-19T14:01:56;25.60;97.30
1728;DHT22;861;48.808;9.006;2022-08-19T14:04:25;25.60;96.70
1728;DHT22;861;48.808;9.006;2022-08-19T14:06:52;25.60;97.50
1728;DHT22;861;48.808;9.006;2022-08-19T14:09:18;25.70;97.40
1728;DHT22;861;48.808;9.006;2022-08-19T14:11:44;25.60;97.80
1728;DHT22;861;48.808;9.006;2022-08-19T14:14:12;25.70;98.30
1728;DHT22;861;48.808;9.006;2022-08-19T14:16:38;25.70;98.20
1728;DHT22;861;48.808;9.006;2022-08-19T14:19:04;25.70;98.50
1728;DHT22;861;48.808;9.006;2022-08-19T14:21:30;25.70;98.00
1728;DHT22;861;48.808;9.006;2022-08-19T14:23:56;25.70;98.00
1728;DHT22;861;48.808;9.006;2022-08-19T14:26:24;25.80;98.50
1728;DHT22;861;48.808;9.006;2022-08-19T14:28:50;25.80;99.00
1728;DHT22;861;48.808;9.006;2022-08-19T14:31:19;26.00;98.40
1728;DHT22;861;48.808;9.006;2022-08-19T14:34:05;26.10;98.80
1728;DHT22;861;48.808;9.006;2022-08-19T14:36:50;26.30;97.80
1728;DHT22;861;48.808;9.006;2022-08-19T14:39:16;26.40;97.20
1728;DHT22;861;48.808;9.006;2022-08-19T14:41:42;26.50;96.50
1728;DHT22;861;48.808;9.006;2022-08-19T14:44:09;26.40;95.90
1728;DHT22;861;48.808;9.006;2022-08-19T14:46:39;26.40;95.30
1728;DHT22;861;48.808;9.006;2022-08-19T14:49:06;26.30;95.30
1728;DHT22;861;48.808;9.006;2022-08-19T14:51:34;26.20;96.10
1728;DHT22;861;48.808;9.006;2022-08-19T14:54:00;26.10;97.20
1728;DHT22;861;48.808;9.006;2022-08-19T14:56:45;26.10;97.00
1728;DHT22;861;48.808;9.006;2022-08-19T14:59:29;26.20;95.60
1728;DHT22;861;48.808;9.006;2022-08-19T15:01:55;26.10;96.70
1728;DHT22;861;48.808;9.006;2022-08-19T15:04:21;26.20;96.10
1728;DHT22;861;48.808;9.006;2022-08-19T15:06:48;26.40;94.80
1728;DHT22;861;48.808;9.006;2022-08-19T15:09:16;26.60;95.00
1728;DHT22;861;48.808;9.006;2022-08-19T15:11:42;27.00;95.20
1728;DHT22;861;48.808;9.006;2022-08-19T15:14:09;27.60;94.30
1728;DHT22;861;48.808;9.006;2022-08-19T15:16:35;28.10;93.00
1728;DHT22;861;48.808;9.006;2022-08-19T15:19:03;28.40;92.00
1728;DHT22;861;48.808;9.006;2022-08-19T15:21:30;28.50;91.50
1728;DHT22;861;48.808;9.006;2022-08-19T15:23:58;28.70;90.90
1728;DHT22;861;48.808;9.006;2022-08-19T15:26:26;28.60;89.80
1728;DHT22;861;48.808;9.006;2022-08-19T15:28:53;28.70;87.20
1728;DHT22;861;48.808;9.006;2022-08-19T15:31:21;28.70;86.10
1728;DHT22;861;48.808;9.006;2022-08-19T15:33:49;28.70;83.00
1728;DHT22;861;48.808;9.006;2022-08-19T15:36:16;28.70;87.70
1728;DHT22;861;48.808;9.006;2022-08-19T15:38:42;28.50;84.80
1728;DHT22;861;48.808;9.006;2022-08-19T15:41:19;28.40;85.20
1728;DHT22;861;48.808;9.006;2022-08-19T15:44:03;28.30;83.50
1728;DHT22;861;48.808;9.006;2022-08-19T15:46:42;28.30;81.80
1728;DHT22;861;48.808;9.006;2022-08-19T15:49:15;28.20;83.40
1728;DHT22;861;48.808;9.006;2022-08-19T15:51:48;28.10;85.00
1728;DHT22;861;48.808;9.006;2022-08-19T15:54:20;28.00;82.50
1728;DHT22;861;48.808;9.006;2022-08-19T15:56:49;27.90;83.20
1728;DHT22;861;48.808;9.006;2022-08-19T15:59:37;27.80;85.10
1728;DHT22;861;48.808;9.006;2022-08-19T16:02:26;27.80;82.50
1728;DHT22;861;48.808;9.006;2022-08-19T16:05:17;27.70;85.10
1728;DHT22;861;48.808;9.006;2022-08-19T16:08:07;27.60;83.50
1728;DHT22;861;48.808;9.006;2022-08-19T16:10:36;27.40;83.60
1728;DHT22;861;48.808;9.006;2022-08-19T16:13:05;27.40;81.90
1728;DHT22;861;48.808;9.006;2022-08-19T16:15:32;27.40;82.90
1728;DHT22;861;48.808;9.006;2022-08-19T16:18:00;27.40;84.20
1728;DHT22;861;48.808;9.006;2022-08-19T16:20:29;27.20;83.90
1728;DHT22;861;48.808;9.006;2022-08-19T16:22:58;27.10;84.60
1728;DHT22;861;48.808;9.006;2022-08-19T16:25:26;27.00;84.80
1728;DHT22;861;48.808;9.006;2022-08-19T16:27:56;26.90;85.50
1728;DHT22;861;48.808;9.006;2022-08-19T16:30:24;26.70;85.60
1728;DHT22;861;48.808;9.006;2022-08-19T16:32:50;26.70;86.80
1728;DHT22;861;48.808;9.006;2022-08-19T16:35:16;26.60;85.70
1728;DHT22;861;48.808;9.006;2022-08-19T16:37:42;26.60;86.40
1728;DHT22;861;48.808;9.006;2022-08-19T16:40:10;26.50;86.70
1728;DHT22;861;48.808;9.006;2022-08-19T16:42:36;26.40;86.70
1728;DHT22;861;48.808;9.006;2022-08-19T16:45:04;26.40;87.80
1728;DHT22;861;48.808;9.006;2022-08-19T16:47:34;26.30;87.50